Time;durP1;ratioP1;P1;durP2;ratioP2;P2;SDS_P1;SDS_P2;PMS_P1;PMS_P2;Temp;Humidity;BMP_temperature;BMP_pressure;BME280_temperature;BME280_humidity;BME280_pressure;Samples;Min_cycle;Max_cycle;Signal;HPM_P1;HPM_P2
2022/03/17 00:00:32;;;;;;;57.75;30.00;;;;;;;5.77;71.06;96894.06;5111267;28;20036;-76
2022/03/17 00:02:58;;;;;;;55.83;29.38;;;;;;;5.76;71.41;96889.75;5111119;28;20054;-76
2022/03/17 00:05:25;;;;;;;57.17;29.67;;;;;;;5.74;71.35;96892.72;5109150;28;20051;-76
2022/03/17 00:07:52;;;;;;;56.75;29.38;;;;;;;5.72;71.36;96884.06;5109375;28;20048;-76
2022/03/17 00:10:19;;;;;;;57.25;29.15;;;;;;;5.74;71.59;96887.31;5108904;28;20043;-75
2022/03/17 00:12:47;;;;;;;60.78;29.98;;;;;;;5.71;71.42;96889.75;5109641;28;20047;-77
2022/03/17 00:15:14;;;;;;;55.70;28.65;;;;;;;5.72;71.33;96889.47;5109168;28;20100;-76
2022/03/17 00:17:42;;;;;;;58.85;29.58;;;;;;;5.74;71.49;96889.19;5108875;28;20082;-76
2022/03/17 00:20:11;;;;;;;59.03;29.77;;;;;;;5.74;71.59;96878.38;5109770;28;20459;-76
2022/03/17 00:22:38;;;;;;;56.22;28.42;;;;;;;5.76;71.29;96882.44;5109619;28;20081;-76
2022/03/17 00:25:05;;;;;;;54.17;27.77;;;;;;;5.78;71.05;96878.66;5114190;28;20074;-76
2022/03/17 00:27:32;;;;;;;57.28;28.95;;;;;;;5.80;71.25;96888.13;5113653;28;20048;-76
2022/03/17 00:30:01;;;;;;;58.67;29.20;;;;;;;5.75;71.24;96882.72;5113656;28;20410;-75
2022/03/17 00:32:28;;;;;;;57.28;28.58;;;;;;;5.79;71.21;96883.78;5113029;28;20047;-75
2022/03/17 00:37:36;;;;;;;58.00;29.33;;;;;;;5.81;71.38;96887.03;5096388;28;20077;-76
2022/03/17 00:40:04;;;;;;;58.20;30.05;;;;;;;5.80;71.19;96885.41;5112763;28;20043;-76
2022/03/17 00:42:31;;;;;;;55.72;28.45;;;;;;;5.81;71.07;96881.63;5114037;28;20397;-76
2022/03/17 00:44:57;;;;;;;57.95;28.85;;;;;;;5.81;70.95;96889.72;5112650;28;20047;-76
2022/03/17 00:47:24;;;;;;;54.88;28.67;;;;;;;5.81;71.46;96889.72;5134047;27;20046;-76
2022/03/17 00:49:51;;;;;;;51.33;28.40;;;;;;;5.82;71.15;96879.72;5133638;27;20054;-76
2022/03/17 00:52:20;;;;;;;61.80;29.73;;;;;;;5.79;71.29;96878.38;5132630;27;20050;-75
2022/03/17 00:54:47;;;;;;;52.35;27.45;;;;;;;5.80;71.05;96884.63;5132119;27;20126;-76
2022/03/17 00:57:14;;;;;;;57.30;28.92;;;;;;;5.80;70.56;96890.81;5132944;27;20051;-75
2022/03/17 00:59:41;;;;;;;56.65;29.02;;;;;;;5.80;70.94;96890.81;5129230;27;20047;-75
2022/03/17 01:02:08;;;;;;;61.33;30.25;;;;;;;5.80;71.19;96901.63;5113714;28;20051;-75
2022/03/17 01:04:36;;;;;;;58.05;28.95;;;;;;;5.81;70.62;96897.84;5113348;28;20050;-75
2022/03/17 01:07:03;;;;;;;58.95;29.75;;;;;;;5.78;70.50;96897.56;5112103;28;20048;-76
2022/03/17 01:09:31;;;;;;;58.28;29.85;;;;;;;5.77;70.85;96899.47;5114516;28;20048;-79
2022/03/17 01:11:58;;;;;;;57.88;29.23;;;;;;;5.77;70.80;96896.75;5113447;28;20066;-76
2022/03/17 01:14:24;;;;;;;55.72;28.52;;;;;;;5.76;70.46;96898.66;5118649;27;20043;-76
2022/03/17 01:16:51;;;;;;;57.28;28.65;;;;;;;5.75;70.71;96899.75;5134125;27;20058;-76
2022/03/17 01:19:19;;;;;;;57.72;29.10;;;;;;;5.74;70.86;96891.91;5133894;27;20043;-75
2022/03/17 01:21:46;;;;;;;53.08;28.33;;;;;;;5.73;70.73;96885.69;5135157;27;20043;-79
2022/03/17 01:24:12;;;;;;;53.20;28.77;;;;;;;5.74;70.55;96887.31;5133815;27;20046;-76
2022/03/17 01:26:41;;;;;;;55.83;29.15;;;;;;;5.71;70.70;96881.66;5135277;27;20490;-75
2022/03/17 01:29:07;;;;;;;58.25;28.58;;;;;;;5.70;70.53;96882.75;5130747;27;20401;-76
2022/03/17 01:31:34;;;;;;;55.85;28.83;;;;;;;5.69;70.67;96875.69;5111684;28;20044;-75
2022/03/17 01:34:01;;;;;;;54.22;28.35;;;;;;;5.68;70.66;96882.19;5110485;28;20067;-76
2022/03/17 01:36:27;;;;;;;55.63;29.63;;;;;;;5.65;71.17;96877.34;5110909;28;20051;-75
2022/03/17 01:38:54;;;;;;;55.97;28.95;;;;;;;5.62;71.13;96877.88;5110701;28;20048;-76
2022/03/17 01:41:21;;;;;;;55.67;30.27;;;;;;;5.57;71.16;96859.78;5110202;28;20055;-74
2022/03/17 01:43:49;;;;;;;56.95;30.10;;;;;;;5.57;71.37;96862.47;5110238;28;20036;-75
2022/03/17 01:46:16;;;;;;;60.28;30.98;;;;;;;5.55;71.41;96861.16;5111675;28;20044;-76
2022/03/17 01:48:43;;;;;;;52.40;28.73;;;;;;;5.54;71.67;96864.94;5112282;28;20047;-75
2022/03/17 01:51:10;;;;;;;53.97;29.42;;;;;;;5.55;71.42;96861.16;5111266;28;20063;-76
2022/03/17 01:53:37;;;;;;;55.08;28.98;;;;;;;5.52;71.63;96857.09;5093633;28;20644;-76
2022/03/17 01:56:05;;;;;;;56.65;28.40;;;;;;;5.52;71.54;96848.19;5109924;28;20698;-75
2022/03/17 01:58:32;;;;;;;65.85;30.45;;;;;;;5.50;71.43;96857.38;5111350;28;20047;-76
2022/03/17 02:01:01;;;;;;;56.13;29.95;;;;;;;5.48;71.63;96856.00;5110751;28;20078;-75
2022/03/17 02:03:28;;;;;;;57.42;30.45;;;;;;;5.50;71.68;96849.28;5109248;28;20040;-76
2022/03/17 02:05:55;;;;;;;62.70;31.27;;;;;;;5.51;71.97;96855.47;5109831;28;20043;-76
2022/03/17 02:08:21;;;;;;;67.88;32.08;;;;;;;5.53;72.04;96860.59;5108661;28;20306;-76
2022/03/17 02:13:34;;;;;;;59.10;30.55;;;;;;;5.53;71.90;96852.50;5090284;28;20057;-75
2022/03/17 02:16:03;;;;;;;59.13;31.90;;;;;;;5.52;72.33;96864.38;5128960;27;20050;-75
2022/03/17 02:18:31;;;;;;;60.45;30.38;;;;;;;5.54;71.88;96859.53;5128753;27;20127;-76
2022/03/17 02:20:59;;;;;;;60.53;30.90;;;;;;;5.48;72.00;96848.75;5130499;27;20054;-75
2022/03/17 02:26:11;;;;;;;64.55;30.48;;;;;;;5.50;72.56;96854.66;5129057;27;20054;-76
2022/03/17 02:28:38;;;;;;;60.50;30.25;;;;;;;5.52;72.39;96845.47;5129464;27;20069;-75
2022/03/17 02:31:05;;;;;;;63.85;31.88;;;;;;;5.48;72.42;96840.63;5111646;27;20694;-75
2022/03/17 02:33:32;;;;;;;61.03;30.17;;;;;;;5.47;72.48;96839.00;5109344;28;20039;-76
2022/03/17 02:35:59;;;;;;;60.55;31.67;;;;;;;5.52;72.22;96850.88;5108288;28;20058;-75
2022/03/17 02:38:26;;;;;;;56.20;29.52;;;;;;;5.52;72.30;96850.88;5109288;28;20421;-76
2022/03/17 02:40:53;;;;;;;57.05;29.65;;;;;;;5.49;72.15;96842.25;5108620;28;20051;-74
2022/03/17 02:43:20;;;;;;;65.95;32.20;;;;;;;5.50;72.29;96838.47;5108391;28;20054;-75
2022/03/17 02:45:47;;;;;;;60.78;31.33;;;;;;;5.49;72.27;96841.44;5124675;27;20047;-75
2022/03/17 02:48:15;;;;;;;66.32;32.80;;;;;;;5.47;72.36;96843.59;5128611;27;20513;-75
2022/03/17 02:50:41;;;;;;;61.72;31.13;;;;;;;5.47;72.38;96846.28;5129011;27;20093;-75
2022/03/17 02:53:08;;;;;;;65.40;32.17;;;;;;;5.43;72.63;96843.34;5128705;27;20054;-76
2022/03/17 02:55:39;;;;;;;69.93;33.13;;;;;;;5.45;72.64;96845.78;5129074;27;20410;-75
2022/03/17 02:58:07;;;;;;;64.82;32.22;;;;;;;5.45;72.41;96840.38;5127849;27;20050;-76
2022/03/17 03:00:34;;;;;;;62.75;31.10;;;;;;;5.42;72.64;96830.91;5117007;27;20496;-77
2022/03/17 03:03:01;;;;;;;64.05;31.38;;;;;;;5.42;72.75;96830.91;5108360;28;20517;-76
2022/03/17 03:05:28;;;;;;;61.72;31.17;;;;;;;5.43;72.67;96831.75;5108222;28;20887;-76
2022/03/17 03:07:55;;;;;;;62.85;31.73;;;;;;;5.43;73.03;96832.56;5108038;28;20048;-76
2022/03/17 03:10:22;;;;;;;65.18;33.17;;;;;;;5.42;73.08;96835.50;5108052;28;20075;-75
2022/03/17 03:12:50;;;;;;;61.78;32.88;;;;;;;5.44;73.26;96831.47;5108365;28;20051;-75
2022/03/17 03:15:16;;;;;;;70.53;33.15;;;;;;;5.44;73.37;96833.34;5106251;28;20050;-75
2022/03/17 03:17:43;;;;;;;65.75;32.67;;;;;;;5.46;73.35;96831.97;5108837;28;20094;-75
2022/03/17 03:20:11;;;;;;;68.45;32.90;;;;;;;5.49;73.09;96841.44;5107516;28;20112;-75
2022/03/17 03:22:39;;;;;;;66.15;32.22;;;;;;;5.49;73.27;96842.25;5108707;28;20527;-76
2022/03/17 03:25:06;;;;;;;66.55;32.80;;;;;;;5.52;73.34;96843.59;5106705;28;20079;-75
2022/03/17 03:27:33;;;;;;;64.18;32.17;;;;;;;5.53;73.39;96830.88;5109141;28;20042;-76
2022/03/17 03:30:02;;;;;;;65.88;32.78;;;;;;;5.52;73.24;96829.28;5107675;28;20048;-76
2022/03/17 03:32:29;;;;;;;64.10;32.13;;;;;;;5.53;73.19;96830.88;5107471;28;20113;-76
2022/03/17 03:34:55;;;;;;;70.28;33.30;;;;;;;5.50;73.21;96832.25;5107192;28;20047;-74
2022/03/17 03:37:24;;;;;;;67.60;32.88;;;;;;;5.50;73.71;96835.75;5107483;28;20078;-76
2022/03/17 03:39:52;;;;;;;67.35;32.80;;;;;;;5.50;73.59;96837.66;5108253;28;20047;-75
2022/03/17 03:42:19;;;;;;;74.70;35.38;;;;;;;5.48;73.31;96840.63;5103943;28;20056;-75
2022/03/17 03:44:45;;;;;;;67.43;34.30;;;;;;;5.49;73.76;96842.25;5110661;28;20051;-76
2022/03/17 03:47:14;;;;;;;65.20;33.20;;;;;;;5.50;73.87;96849.28;5110161;28;20082;-76
2022/03/17 03:49:42;;;;;;;70.90;34.65;;;;;;;5.48;73.67;96856.84;5110344;28;20052;-75
2022/03/17 03:52:11;;;;;;;66.22;34.67;;;;;;;5.49;73.93;96853.06;5107681;28;20063;-76
2022/03/17 03:54:38;;;;;;;65.38;33.50;;;;;;;5.46;73.97;96853.59;5109532;28;20387;-75
2022/03/17 03:57:06;;;;;;;64.70;34.65;;;;;;;5.47;74.01;96839.00;5108123;28;20044;-76
2022/03/17 03:59:33;;;;;;;66.20;34.28;;;;;;;5.45;74.09;96841.19;5112224;28;20052;-74
2022/03/17 04:02:01;;;;;;;62.78;33.33;;;;;;;5.43;74.36;96854.16;5112594;28;20051;-75
2022/03/17 04:04:30;;;;;;;67.45;34.05;;;;;;;5.43;74.44;96862.25;5111145;28;20051;-76
2022/03/17 04:06:59;;;;;;;63.35;34.33;;;;;;;5.44;74.21;96863.88;5112496;28;20052;-74
2022/03/17 04:09:28;;;;;;;63.45;33.88;;;;;;;5.43;74.35;96870.38;5111176;28;20052;-74
2022/03/17 04:11:55;;;;;;;68.90;34.67;;;;;;;5.43;74.34;96870.38;5112036;28;20099;-75
2022/03/17 04:14:23;;;;;;;66.97;34.63;;;;;;;5.44;74.35;96877.38;5110561;28;20052;-75
2022/03/17 04:16:50;;;;;;;67.97;35.10;;;;;;;5.44;74.64;96879.28;5112033;28;20047;-75
2022/03/17 04:19:17;;;;;;;61.40;33.40;;;;;;;5.43;74.42;96870.38;5111680;28;20059;-75
2022/03/17 04:21:47;;;;;;;65.57;33.78;;;;;;;5.43;74.48;96867.66;5111697;28;20051;-76
2022/03/17 04:24:14;;;;;;;65.82;33.63;;;;;;;5.41;74.37;96869.81;5111716;28;20750;-76
2022/03/17 04:26:41;;;;;;;64.03;34.45;;;;;;;5.41;74.65;96877.91;5110992;28;20044;-74
2022/03/17 04:29:09;;;;;;;69.97;34.28;;;;;;;5.43;74.73;96881.16;5111396;28;20512;-75
2022/03/17 04:31:36;;;;;;;63.83;34.70;;;;;;;5.43;74.80;96883.06;5110272;28;20053;-76
2022/03/17 04:34:03;;;;;;;67.43;36.05;;;;;;;5.44;74.82;96885.47;5111662;28;20051;-76
2022/03/17 04:36:31;;;;;;;69.40;35.03;;;;;;;5.44;74.97;96885.47;5110216;28;20043;-75
2022/03/17 04:38:58;;;;;;;65.07;34.33;;;;;;;5.46;74.68;96885.19;5111507;28;20051;-75
2022/03/17 04:41:25;;;;;;;71.90;34.90;;;;;;;5.48;74.78;96894.66;5110393;28;20054;-76
2022/03/17 04:43:52;;;;;;;72.20;34.78;;;;;;;5.49;75.00;96880.06;5110363;28;20221;-75
2022/03/17 04:46:20;;;;;;;77.65;36.78;;;;;;;5.48;74.86;96883.84;5109997;28;20054;-75
2022/03/17 04:48:46;;;;;;;71.38;35.50;;;;;;;5.47;74.61;96882.22;5110288;28;20044;-76
2022/03/17 04:51:13;;;;;;;67.25;35.05;;;;;;;5.45;74.52;96889.78;5109636;28;20437;-76
2022/03/17 04:53:39;;;;;;;73.75;36.85;;;;;;;5.42;74.91;96884.91;5108909;28;20047;-75
2022/03/17 04:56:12;;;;;;;69.05;34.63;;;;;;;5.42;75.14;96890.31;5109367;28;20805;-76
2022/03/17 04:58:41;;;;;;;75.77;35.93;;;;;;;5.41;75.01;96888.72;5109343;28;20047;-75
2022/03/17 05:01:08;;;;;;;73.78;35.65;;;;;;;5.40;74.95;96902.50;5092801;28;20282;-75
2022/03/17 05:03:36;;;;;;;68.32;35.25;;;;;;;5.38;75.22;96905.47;5090476;28;20044;-74
2022/03/17 05:06:04;;;;;;;69.85;36.08;;;;;;;5.41;75.15;96910.31;5090150;28;20591;-76
2022/03/17 05:08:34;;;;;;;71.93;35.42;;;;;;;5.41;75.18;96910.31;5090075;28;20545;-75
2022/03/17 05:11:01;;;;;;;74.78;36.15;;;;;;;5.35;75.49;96905.19;5088975;28;20537;-76
2022/03/17 05:13:29;;;;;;;70.68;35.35;;;;;;;5.34;75.62;96900.88;5103249;28;20039;-76
2022/03/17 05:15:55;;;;;;;68.13;34.53;;;;;;;5.34;75.63;96901.69;5110558;28;20055;-76
2022/03/17 05:18:22;;;;;;;75.72;36.60;;;;;;;5.34;75.52;96903.59;5112731;28;20054;-76
2022/03/17 05:20:49;;;;;;;68.13;35.42;;;;;;;5.31;75.76;96904.13;5112497;28;20047;-76
2022/03/17 05:23:18;;;;;;;73.00;37.03;;;;;;;5.32;75.92;96901.13;5113068;28;20052;-77
2022/03/17 05:25:47;;;;;;;70.57;35.90;;;;;;;5.32;75.83;96909.22;5111949;28;20078;-76
2022/03/17 05:28:14;;;;;;;73.47;38.30;;;;;;;5.34;76.06;96909.78;5115231;28;20075;-76
2022/03/17 05:30:45;;;;;;;73.55;36.95;;;;;;;5.35;75.92;96916.81;5116851;28;20089;-76
2022/03/17 05:33:12;;;;;;;75.80;37.35;;;;;;;5.39;76.04;96928.69;5114011;28;20082;-76
2022/03/17 05:35:39;;;;;;;68.82;35.67;;;;;;;5.40;75.65;96927.59;5111984;28;20556;-75
2022/03/17 05:38:06;;;;;;;73.85;36.63;;;;;;;5.39;76.05;96930.59;5110811;28;20113;-75
2022/03/17 05:40:34;;;;;;;80.75;37.58;;;;;;;5.39;75.77;96928.69;5114033;28;20051;-75
2022/03/17 05:43:02;;;;;;;73.15;37.15;;;;;;;5.41;75.88;96920.31;5113517;28;20505;-75
2022/03/17 05:45:30;;;;;;;75.85;37.83;;;;;;;5.41;76.14;96921.13;5113726;28;20053;-75
2022/03/17 05:48:00;;;;;;;71.28;37.10;;;;;;;5.41;76.00;96917.63;5111534;28;20524;-76
2022/03/17 05:50:29;;;;;;;80.20;39.70;;;;;;;5.42;75.89;96922.72;5111383;28;20084;-75
2022/03/17 05:52:56;;;;;;;74.50;37.65;;;;;;;5.43;76.12;96918.16;5071340;28;1175471;-75
2022/03/17 05:55:24;;;;;;;79.68;37.75;;;;;;;5.49;76.03;96934.09;5111499;28;20047;-76
2022/03/17 05:57:52;;;;;;;71.05;36.55;;;;;;;5.52;75.85;96931.91;5113216;28;20120;-75
2022/03/17 06:00:23;;;;;;;73.85;38.78;;;;;;;5.55;75.82;96936.78;5099231;28;20044;-76
2022/03/17 06:02:50;;;;;;;68.10;36.60;;;;;;;5.54;75.68;96935.19;5111437;28;20574;-76
2022/03/17 06:05:18;;;;;;;74.95;38.13;;;;;;;5.51;75.76;96936.53;5109026;28;20056;-76
2022/03/17 06:07:46;;;;;;;73.50;38.38;;;;;;;5.53;76.07;96944.34;5110374;28;20058;-75
2022/03/17 06:10:14;;;;;;;72.82;38.33;;;;;;;5.58;75.92;96949.75;5108953;28;20047;-74
2022/03/17 06:12:43;;;;;;;83.63;39.22;;;;;;;5.64;75.83;96938.69;5109361;28;20390;-75
2022/03/17 06:15:12;;;;;;;70.85;36.28;;;;;;;5.67;75.75;96945.41;5109460;28;20054;-75
2022/03/17 06:17:40;;;;;;;71.85;36.65;;;;;;;5.71;75.62;96952.72;5109923;28;20047;-75
2022/03/17 06:20:09;;;;;;;68.75;36.83;;;;;;;5.74;75.67;96956.75;5109617;28;20078;-75
2022/03/17 06:22:38;;;;;;;72.78;37.20;;;;;;;5.81;75.65;96960.00;5110003;28;20134;-76
2022/03/17 06:25:06;;;;;;;67.43;35.50;;;;;;;5.86;75.26;96951.09;5110101;28;20132;-75
2022/03/17 06:27:34;;;;;;;78.85;38.33;;;;;;;5.90;75.12;96961.06;5109387;28;20113;-75
2022/03/17 06:30:01;;;;;;;78.88;38.83;;;;;;;5.94;75.06;96966.75;5102106;28;20051;-74
2022/03/17 06:32:28;;;;;;;70.20;37.70;;;;;;;5.97;74.99;96958.13;5089025;28;20051;-75
2022/03/17 06:34:54;;;;;;;78.10;38.33;;;;;;;6.04;74.78;96953.22;5090158;28;20419;-75
2022/03/17 06:37:21;;;;;;;74.65;37.95;;;;;;;6.10;74.68;96959.44;5088801;28;20064;-75
2022/03/17 06:39:49;;;;;;;77.43;39.28;;;;;;;6.16;74.39;96961.03;5089215;28;20054;-74
2022/03/17 06:42:15;;;;;;;72.85;37.33;;;;;;;6.19;74.42;96961.28;5092808;28;20047;-76
2022/03/17 06:44:42;;;;;;;77.78;38.53;;;;;;;6.19;74.02;96963.19;5108114;28;20050;-76
2022/03/17 06:47:08;;;;;;;73.43;39.08;;;;;;;6.24;73.82;96964.00;5110327;28;20044;-75
2022/03/17 06:49:36;;;;;;;74.72;38.88;;;;;;;6.27;73.41;96970.75;5109253;28;20047;-75
2022/03/17 06:52:03;;;;;;;76.88;38.15;;;;;;;6.35;73.57;96970.19;5109307;28;20051;-77
2022/03/17 06:54:29;;;;;;;72.68;35.95;;;;;;;6.37;73.69;96972.59;5108910;28;20059;-75
2022/03/17 06:56:57;;;;;;;77.97;38.92;;;;;;;6.42;73.60;96978.81;5109252;28;20047;-76
2022/03/17 06:59:25;;;;;;;72.53;36.88;;;;;;;6.50;73.30;96975.53;5109482;28;20142;-78
2022/03/17 07:01:52;;;;;;;81.78;37.78;;;;;;;6.60;73.04;96980.09;5109152;28;20664;-78
2022/03/17 07:04:18;;;;;;;79.28;38.88;;;;;;;6.62;72.36;96983.31;5108534;28;20047;-74
2022/03/17 07:06:47;;;;;;;71.90;36.40;;;;;;;6.65;71.67;96984.69;5108327;28;20055;-78
2022/03/17 07:09:14;;;;;;;70.85;38.03;;;;;;;6.77;72.25;96996.00;5109285;28;20494;-74
2022/03/17 07:11:44;;;;;;;69.85;37.75;;;;;;;6.85;72.26;97000.84;5109047;28;20058;-77
2022/03/17 07:14:12;;;;;;;68.05;36.40;;;;;;;6.93;72.10;96999.44;5108550;28;20520;-74
2022/03/17 07:16:39;;;;;;;65.60;36.25;;;;;;;6.99;70.94;96999.13;5108456;28;20054;-74
2022/03/17 07:19:07;;;;;;;73.05;37.75;;;;;;;7.09;71.31;97008.28;5109510;28;20054;-77
2022/03/17 07:21:34;;;;;;;67.82;36.85;;;;;;;7.20;70.72;97009.84;5109870;28;20058;-76
2022/03/17 07:24:01;;;;;;;66.68;36.10;;;;;;;7.29;70.77;97008.97;5108727;28;20096;-75
2022/03/17 07:26:27;;;;;;;66.93;37.28;;;;;;;7.38;70.92;97011.91;5108652;28;20057;-75
2022/03/17 07:28:54;;;;;;;67.75;36.35;;;;;;;7.46;70.30;97008.59;5109143;28;20044;-75
2022/03/17 07:31:24;;;;;;;66.07;36.60;;;;;;;7.56;69.57;97013.94;5109027;28;20043;-74
2022/03/17 07:33:50;;;;;;;63.95;34.67;;;;;;;7.67;68.96;97016.56;5109144;28;20572;-78
2022/03/17 07:36:17;;;;;;;65.53;35.20;;;;;;;7.79;68.82;97011.63;5109713;28;20082;-75
2022/03/17 07:38:43;;;;;;;65.38;35.83;;;;;;;7.90;68.79;97020.47;5109702;28;20133;-75
2022/03/17 07:41:10;;;;;;;64.35;36.55;;;;;;;7.98;67.20;97020.66;5112814;28;20055;-76
2022/03/17 07:43:37;;;;;;;67.05;36.00;;;;;;;8.04;67.25;97033.09;5112160;28;20050;-75
2022/03/17 07:46:03;;;;;;;65.45;36.50;;;;;;;8.18;67.29;97041.34;5111833;28;20109;-76
2022/03/17 07:48:31;;;;;;;68.05;35.90;;;;;;;8.29;67.21;97026.59;5111043;28;20043;-75
2022/03/17 07:50:58;;;;;;;68.38;36.55;;;;;;;8.40;66.58;97032.75;5108557;28;20043;-75
2022/03/17 07:53:24;;;;;;;60.33;34.22;;;;;;;8.47;66.34;97030.53;5110039;28;20046;-76
2022/03/17 07:55:54;;;;;;;59.95;33.95;;;;;;;8.51;65.28;97023.44;5108829;28;20066;-75
2022/03/17 07:58:21;;;;;;;61.83;34.85;;;;;;;8.57;65.93;97027.72;5108572;28;20055;-75
2022/03/17 08:00:47;;;;;;;67.40;35.55;;;;;;;8.57;65.58;97033.13;5107092;28;20047;-75
2022/03/17 08:03:14;;;;;;;69.53;36.50;;;;;;;8.57;65.17;97037.75;5107396;28;20124;-74
2022/03/17 08:05:42;;;;;;;63.53;35.55;;;;;;;8.61;65.08;97038.78;5107745;28;20497;-75
2022/03/17 08:08:08;;;;;;;66.47;35.88;;;;;;;8.62;65.86;97046.66;5111505;28;20051;-75
2022/03/17 08:10:35;;;;;;;64.05;34.67;;;;;;;8.69;66.15;97045.50;5112174;28;20048;-76
2022/03/17 08:13:02;;;;;;;69.32;36.75;;;;;;;8.79;65.55;97045.38;5111153;28;20044;-75
2022/03/17 08:15:29;;;;;;;62.90;35.40;;;;;;;8.91;64.55;97051.19;5111431;28;20043;-75
2022/03/17 08:17:56;;;;;;;64.00;35.95;;;;;;;8.98;63.34;97042.69;5110170;28;20052;-76
2022/03/17 08:20:22;;;;;;;61.90;35.53;;;;;;;9.03;63.16;97045.34;5110978;28;20054;-77
2022/03/17 08:22:50;;;;;;;58.25;33.50;;;;;;;9.12;62.95;97049.03;5111093;28;20055;-76
2022/03/17 08:25:16;;;;;;;61.67;35.47;;;;;;;9.25;62.96;97050.25;5110136;28;20044;-75
2022/03/17 08:27:43;;;;;;;58.03;33.67;;;;;;;9.37;62.70;97056.88;5107550;28;20052;-75
2022/03/17 08:30:11;;;;;;;57.28;32.95;;;;;;;9.47;61.99;97055.91;5107257;28;20043;-75
2022/03/17 08:32:39;;;;;;;60.83;33.17;;;;;;;9.56;61.64;97058.78;5108438;28;20043;-74
2022/03/17 08:35:06;;;;;;;62.97;34.55;;;;;;;9.62;61.90;97055.69;5106887;28;20105;-74
2022/03/17 08:37:38;;;;;;;57.40;33.22;;;;;;;9.67;61.62;97061.06;5107364;28;20053;-74
2022/03/17 08:40:07;;;;;;;59.13;33.60;;;;;;;9.65;60.61;97051.56;5107421;28;20518;-75
2022/03/17 08:42:34;;;;;;;55.72;32.35;;;;;;;9.61;60.32;97064.97;5108582;28;20051;-74
2022/03/17 08:45:00;;;;;;;57.05;32.72;;;;;;;9.64;60.51;97061.63;5109879;28;20051;-76
2022/03/17 08:50:13;;;;;;;59.63;33.33;;;;;;;9.63;60.27;97065.47;5111342;28;20053;-75
2022/03/17 08:52:39;;;;;;;56.80;32.00;;;;;;;9.60;60.09;97066.03;5110956;28;20036;-75
2022/03/17 08:55:10;;;;;;;60.72;33.33;;;;;;;9.67;61.54;97074.66;5111136;28;20058;-74
2022/03/17 08:57:37;;;;;;;61.08;34.28;;;;;;;9.70;60.48;97072.44;5110909;28;20059;-75
2022/03/17 09:00:06;;;;;;;58.40;33.63;;;;;;;9.71;60.11;97074.06;5111213;28;20058;-75
2022/03/17 09:02:33;;;;;;;55.25;31.80;;;;;;;9.82;60.36;97078.25;5110876;28;20107;-74
2022/03/17 09:04:59;;;;;;;52.63;31.83;;;;;;;9.90;60.05;97074.84;5111790;28;20077;-74
2022/03/17 09:07:26;;;;;;;58.55;32.15;;;;;;;9.95;59.79;97082.94;5109971;28;20047;-75
2022/03/17 09:09:52;;;;;;;57.92;32.78;;;;;;;10.04;59.80;97081.16;5110752;28;20050;-74
2022/03/17 09:12:20;;;;;;;56.17;32.10;;;;;;;10.15;60.18;97077.19;5108097;28;20051;-75
2022/03/17 09:14:47;;;;;;;57.97;32.88;;;;;;;10.22;60.23;97075.97;5110916;28;20498;-75
2022/03/17 09:17:14;;;;;;;62.10;36.10;;;;;;;10.31;59.44;97087.84;5109201;28;20047;-76
2022/03/17 09:19:40;;;;;;;58.72;33.30;;;;;;;10.41;59.06;97080.31;5108922;28;20043;-75
2022/03/17 09:22:08;;;;;;;58.50;32.65;;;;;;;10.45;58.84;97080.53;5109212;28;20078;-74
2022/03/17 09:24:34;;;;;;;59.17;33.10;;;;;;;10.51;58.17;97082.03;5108668;28;20067;-77
2022/03/17 09:27:10;;;;;;;58.17;32.90;;;;;;;10.55;58.46;97090.44;5110163;28;20044;-76
2022/03/17 09:29:40;;;;;;;54.55;31.38;;;;;;;10.60;59.25;97091.16;5108594;28;20047;-75
2022/03/17 09:32:09;;;;;;;54.05;32.10;;;;;;;10.58;58.30;97095.28;5109100;28;20581;-73
2022/03/17 09:34:36;;;;;;;52.20;33.28;;;;;;;10.57;58.37;97101.81;5111188;28;20569;-75
2022/03/17 09:37:03;;;;;;;55.50;33.15;;;;;;;10.59;59.05;97099.59;5113523;28;20058;-76
2022/03/17 09:39:45;;;;;;;50.80;30.95;;;;;;;10.60;58.99;97102.03;5112561;28;20047;-74
2022/03/17 09:42:14;;;;;;;55.22;31.73;;;;;;;10.62;58.42;97096.28;5110187;28;20047;-74
2022/03/17 09:44:42;;;;;;;57.60;32.42;;;;;;;10.57;58.01;97102.63;5111568;28;20052;-74
2022/03/17 09:47:10;;;;;;;52.40;31.67;;;;;;;10.57;58.02;97099.91;5110289;28;20417;-76
2022/03/17 09:49:38;;;;;;;56.97;31.75;;;;;;;10.55;57.97;97106.78;5110424;28;20051;-75
2022/03/17 09:52:12;;;;;;;50.03;31.30;;;;;;;10.57;58.42;97096.38;5108926;28;20403;-75
2022/03/17 09:54:39;;;;;;;55.70;31.48;;;;;;;10.58;57.66;97103.44;5110261;28;20089;-76
2022/03/17 09:57:06;;;;;;;49.35;30.70;;;;;;;10.52;58.31;97100.00;5108443;28;20052;-73
2022/03/17 09:59:32;;;;;;;53.17;32.17;;;;;;;10.45;58.86;97097.66;5105610;28;20044;-73
2022/03/17 10:02:01;;;;;;;53.13;31.67;;;;;;;10.38;58.07;97099.16;5089324;28;20048;-75
2022/03/17 10:04:31;;;;;;;55.95;30.90;;;;;;;10.39;58.53;97103.50;5087941;28;20044;-75
2022/03/17 10:06:58;;;;;;;56.70;33.13;;;;;;;10.40;58.99;97116.00;5088421;28;20052;-74
2022/03/17 10:09:25;;;;;;;55.90;30.85;;;;;;;10.42;58.90;97111.06;5088330;28;20109;-74
2022/03/17 10:12:00;;;;;;;52.65;31.95;;;;;;;10.49;59.58;97106.03;5088631;28;20052;-75
2022/03/17 10:14:36;;;;;;;50.50;31.83;;;;;;;10.54;59.11;97105.13;5107491;28;20051;-76
2022/03/17 10:17:07;;;;;;;52.53;31.33;;;;;;;10.50;58.73;97115.03;5107767;28;20097;-75
2022/03/17 10:19:36;;;;;;;50.78;30.50;;;;;;;10.41;59.05;97110.25;5108625;28;20051;-74
2022/03/17 10:22:10;;;;;;;58.58;31.70;;;;;;;10.39;59.10;97114.41;5108180;28;20040;-75
2022/03/17 10:24:39;;;;;;;57.75;32.67;;;;;;;10.35;59.33;97119.63;5108620;28;20040;-76
2022/03/17 10:27:06;;;;;;;48.28;29.70;;;;;;;10.36;59.17;97109.53;5107949;28;20051;-74
2022/03/17 10:29:33;;;;;;;56.40;33.80;;;;;;;10.32;59.04;97122.13;5109537;28;20047;-74
2022/03/17 10:32:02;;;;;;;50.95;29.55;;;;;;;10.31;58.85;97117.78;5109485;28;20058;-75
2022/03/17 10:34:33;;;;;;;59.67;31.58;;;;;;;10.30;58.80;97122.44;5109657;28;20043;-76
2022/03/17 10:37:11;;;;;;;50.00;30.58;;;;;;;10.29;59.25;97120.00;5109630;28;20155;-74
2022/03/17 10:39:42;;;;;;;56.10;31.30;;;;;;;10.33;59.37;97121.00;5110500;28;20498;-75
2022/03/17 10:42:14;;;;;;;55.33;30.90;;;;;;;10.28;58.72;97118.38;5110498;28;20048;-75
2022/03/17 10:44:42;;;;;;;50.13;29.80;;;;;;;10.25;59.13;97119.78;5109479;28;20044;-75
2022/03/17 10:47:10;;;;;;;50.25;30.67;;;;;;;10.28;59.17;97121.09;5110536;28;20048;-75
2022/03/17 10:49:38;;;;;;;52.95;30.02;;;;;;;10.31;58.54;97120.50;5109755;28;20458;-75
2022/03/17 10:52:05;;;;;;;50.33;29.90;;;;;;;10.31;58.41;97121.31;5110271;28;20047;-75
2022/03/17 10:54:32;;;;;;;55.88;31.25;;;;;;;10.37;58.61;97130.22;5108235;28;20047;-75
2022/03/17 10:57:02;;;;;;;55.22;31.58;;;;;;;10.45;59.29;97126.81;5109122;28;20055;-74
2022/03/17 10:59:39;;;;;;;53.55;28.52;;;;;;;10.56;57.95;97120.09;5111008;28;20059;-75
2022/03/17 11:02:08;;;;;;;56.55;31.13;;;;;;;10.68;58.98;97122.31;5109604;28;20048;-76
2022/03/17 11:04:36;;;;;;;53.13;29.75;;;;;;;10.71;58.03;97121.72;5111423;28;20104;-75
2022/03/17 11:07:06;;;;;;;54.83;29.90;;;;;;;10.83;58.24;97123.97;5108781;28;20047;-77
2022/03/17 11:09:34;;;;;;;49.50;28.77;;;;;;;10.97;57.69;97127.53;5110712;28;20175;-75
2022/03/17 11:12:04;;;;;;;47.33;28.05;;;;;;;11.12;57.19;97124.50;5115817;28;20044;-76
2022/03/17 11:14:31;;;;;;;54.88;30.02;;;;;;;11.28;57.43;97126.94;5094946;28;20048;-76
2022/03/17 11:17:01;;;;;;;48.70;27.65;;;;;;;11.29;55.15;97131.28;5093259;28;20109;-75
2022/03/17 11:19:28;;;;;;;51.72;28.27;;;;;;;11.27;55.37;97130.75;5089310;28;20046;-76
2022/03/17 11:22:08;;;;;;;47.85;28.88;;;;;;;11.38;55.08;97129.44;5088927;28;20044;-76
2022/03/17 11:24:35;;;;;;;54.22;29.02;;;;;;;11.41;55.15;97131.56;5088603;28;20068;-76
2022/03/17 11:27:10;;;;;;;48.65;28.05;;;;;;;11.49;55.07;97133.59;5088783;28;20050;-78
2022/03/17 11:29:41;;;;;;;46.63;27.27;;;;;;;11.58;54.88;97137.19;5089153;28;20109;-75
2022/03/17 11:32:10;;;;;;;47.00;27.65;;;;;;;11.68;55.28;97134.25;5088267;28;20106;-74
2022/03/17 11:34:47;;;;;;;51.25;28.15;;;;;;;11.75;55.22;97140.13;5087740;28;20075;-75
2022/03/17 11:37:16;;;;;;;54.13;28.42;;;;;;;11.71;53.89;97138.31;5087899;28;20515;-75